Time;durP1;ratioP1;P1;durP2;ratioP2;P2;SDS_P1;SDS_P2;PMS_P1;PMS_P2;Temp;Humidity;BMP_temperature;BMP_pressure;BME280_temperature;BME280_humidity;BME280_pressure;Samples;Min_cycle;Max_cycle;Signal;HPM_P1;HPM_P2
2023/08/26 00:01:33;;;;;;;13.55;9.43;;;;;;;;;;5018930;28;20042;-78
2023/08/26 00:04:00;;;;;;;14.00;9.68;;;;;;;;;;5035224;28;20093;-78
2023/08/26 00:06:26;;;;;;;12.27;9.77;;;;;;;;;;5018333;28;20057;-79
2023/08/26 00:08:52;;;;;;;12.80;9.20;;;;;;;;;;5017874;28;20055;-78
2023/08/26 00:11:18;;;;;;;10.52;9.15;;;;;;;;;;5036029;28;20049;-78
2023/08/26 00:13:44;;;;;;;12.38;9.68;;;;;;;;;;5001448;28;20576;-79
2023/08/26 00:16:12;;;;;;;12.35;9.32;;;;;;;;;;5018446;28;20045;-79
2023/08/26 00:18:38;;;;;;;12.35;9.45;;;;;;;;;;5035263;28;20042;-78
2023/08/26 00:21:05;;;;;;;12.13;9.60;;;;;;;;;;5035927;28;20378;-78
2023/08/26 00:23:31;;;;;;;11.60;9.25;;;;;;;;;;5035312;28;20049;-78
2023/08/26 00:25:57;;;;;;;14.52;9.57;;;;;;;;;;5035873;28;20132;-79
2023/08/26 00:28:23;;;;;;;11.95;9.63;;;;;;;;;;5013684;28;20092;-78
2023/08/26 00:30:59;;;;;;;11.32;9.13;;;;;;;;;;4998093;28;20057;-78
2023/08/26 00:33:26;;;;;;;10.75;8.95;;;;;;;;;;4997720;28;20418;-77
2023/08/26 00:35:52;;;;;;;10.60;8.10;;;;;;;;;;5015553;28;20060;-78
2023/08/26 00:38:18;;;;;;;10.85;8.50;;;;;;;;;;5015094;28;20065;-78
2023/08/26 00:40:44;;;;;;;10.07;8.30;;;;;;;;;;4998047;28;20100;-78
2023/08/26 00:43:10;;;;;;;10.00;8.20;;;;;;;;;;5014962;28;20041;-78
2023/08/26 00:45:41;;;;;;;10.00;8.05;;;;;;;;;;5015431;28;20049;-78
2023/08/26 00:48:08;;;;;;;10.82;7.78;;;;;;;;;;4996708;28;20104;-78
2023/08/26 00:50:35;;;;;;;9.57;7.70;;;;;;;;;;5014930;28;20104;-78
2023/08/26 00:53:01;;;;;;;10.80;8.00;;;;;;;;;;5014664;28;20077;-79
2023/08/26 00:55:28;;;;;;;10.48;8.07;;;;;;;;;;5015136;28;20104;-78
2023/08/26 00:57:55;;;;;;;13.55;8.23;;;;;;;;;;5014709;28;20088;-78
2023/08/26 01:00:22;;;;;;;11.43;8.27;;;;;;;;;;4981320;28;20458;-78
2023/08/26 01:02:48;;;;;;;10.00;7.88;;;;;;;;;;5011600;28;20049;-78
2023/08/26 01:05:14;;;;;;;11.55;8.60;;;;;;;;;;5014777;28;20490;-77
2023/08/26 01:07:41;;;;;;;12.00;8.40;;;;;;;;;;4996367;28;20046;-78
2023/08/26 01:10:07;;;;;;;12.60;8.77;;;;;;;;;;4996618;28;20402;-78
2023/08/26 01:12:53;;;;;;;11.38;7.70;;;;;;;;;;4996544;28;20078;-78
2023/08/26 01:15:20;;;;;;;12.85;8.48;;;;;;;;;;5014259;28;20050;-78
2023/08/26 01:17:46;;;;;;;10.57;8.10;;;;;;;;;;4996866;28;20042;-78
2023/08/26 01:20:12;;;;;;;13.13;8.57;;;;;;;;;;4997281;28;20049;-79
2023/08/26 01:22:41;;;;;;;10.60;8.10;;;;;;;;;;5014278;28;20049;-79
2023/08/26 01:25:07;;;;;;;10.93;8.02;;;;;;;;;;4996685;28;20054;-78
2023/08/26 01:27:33;;;;;;;10.95;8.57;;;;;;;;;;5024129;28;20096;-79
2023/08/26 01:30:00;;;;;;;13.05;8.73;;;;;;;;;;5034206;28;20053;-78
2023/08/26 01:32:29;;;;;;;11.60;8.63;;;;;;;;;;5015793;28;20045;-79
2023/08/26 01:34:57;;;;;;;12.48;8.82;;;;;;;;;;5034085;28;20045;-78
2023/08/26 01:37:24;;;;;;;13.18;8.95;;;;;;;;;;5015784;28;20059;-78
2023/08/26 01:39:51;;;;;;;13.57;8.95;;;;;;;;;;5033997;28;20049;-78
2023/08/26 01:42:23;;;;;;;13.57;9.60;;;;;;;;;;5015862;28;20053;-78
2023/08/26 01:44:49;;;;;;;13.32;9.65;;;;;;;;;;5015900;28;20340;-78
2023/08/26 01:47:16;;;;;;;16.58;9.85;;;;;;;;;;5032469;28;20095;-78
2023/08/26 01:49:43;;;;;;;13.35;9.45;;;;;;;;;;5031996;28;20421;-78
2023/08/26 01:52:10;;;;;;;12.20;9.25;;;;;;;;;;5015014;28;20128;-78
2023/08/26 01:54:36;;;;;;;12.73;9.38;;;;;;;;;;5033733;28;20091;-78
2023/08/26 01:57:02;;;;;;;13.35;8.38;;;;;;;;;;4999358;28;20041;-78
2023/08/26 01:59:28;;;;;;;11.48;8.80;;;;;;;;;;5032486;28;20521;-78
2023/08/26 02:01:54;;;;;;;13.77;8.82;;;;;;;;;;5016026;28;20045;-79
2023/08/26 02:04:20;;;;;;;12.02;8.70;;;;;;;;;;5013094;28;20053;-78
2023/08/26 02:06:46;;;;;;;11.98;8.43;;;;;;;;;;5015767;28;20348;-78
2023/08/26 02:09:12;;;;;;;12.73;8.60;;;;;;;;;;5033337;28;20469;-78
2023/08/26 02:11:38;;;;;;;12.93;8.75;;;;;;;;;;5015883;28;20076;-78
2023/08/26 02:14:04;;;;;;;13.65;8.68;;;;;;;;;;5015140;28;20041;-79
2023/08/26 02:16:30;;;;;;;15.63;8.60;;;;;;;;;;5033745;28;20048;-78
2023/08/26 02:18:57;;;;;;;12.38;8.75;;;;;;;;;;5015713;28;20056;-78
2023/08/26 02:21:23;;;;;;;11.48;8.32;;;;;;;;;;5037279;28;20041;-78
2023/08/26 02:23:49;;;;;;;11.23;7.85;;;;;;;;;;5020142;28;20045;-78
2023/08/26 02:26:15;;;;;;;10.40;8.15;;;;;;;;;;5015677;28;20076;-78
2023/08/26 02:28:41;;;;;;;12.27;8.80;;;;;;;;;;5011995;28;20422;-79
2023/08/26 02:31:07;;;;;;;12.10;8.13;;;;;;;;;;4995917;28;20132;-78
2023/08/26 02:33:34;;;;;;;11.52;8.27;;;;;;;;;;4995530;28;20033;-78
2023/08/26 02:36:00;;;;;;;13.27;8.52;;;;;;;;;;4995833;28;20046;-78
2023/08/26 02:38:26;;;;;;;12.38;8.35;;;;;;;;;;4995492;28;20050;-78
2023/08/26 02:40:55;;;;;;;11.93;7.97;;;;;;;;;;4995947;28;20056;-78
2023/08/26 02:43:22;;;;;;;10.93;7.68;;;;;;;;;;4995315;28;20042;-78
2023/08/26 02:45:54;;;;;;;10.93;8.10;;;;;;;;;;5013447;28;20061;-78
2023/08/26 02:48:21;;;;;;;11.48;7.28;;;;;;;;;;5013179;28;20100;-79
2023/08/26 02:50:47;;;;;;;11.00;7.57;;;;;;;;;;5012186;28;20049;-78
2023/08/26 02:53:14;;;;;;;11.43;7.28;;;;;;;;;;4995036;28;20137;-77
2023/08/26 02:55:40;;;;;;;12.63;7.38;;;;;;;;;;5013140;28;20046;-78
2023/08/26 02:58:06;;;;;;;12.23;7.07;;;;;;;;;;5012679;28;20621;-78
2023/08/26 03:00:35;;;;;;;8.63;6.07;;;;;;;;;;5013310;28;20050;-79
2023/08/26 03:03:01;;;;;;;9.20;6.18;;;;;;;;;;5012819;28;20119;-79
2023/08/26 03:05:27;;;;;;;13.45;6.45;;;;;;;;;;5013054;28;20058;-78
2023/08/26 03:07:53;;;;;;;14.35;6.35;;;;;;;;;;4995236;28;20046;-78
2023/08/26 03:10:19;;;;;;;10.48;6.40;;;;;;;;;;5011703;28;20172;-78
2023/08/26 03:12:45;;;;;;;9.77;6.30;;;;;;;;;;4995751;28;20046;-78
2023/08/26 03:15:12;;;;;;;10.23;6.18;;;;;;;;;;4996341;28;20458;-78
2023/08/26 03:17:38;;;;;;;8.23;5.97;;;;;;;;;;5012941;28;20038;-78
2023/08/26 03:20:05;;;;;;;11.43;6.38;;;;;;;;;;5013203;28;20039;-77
2023/08/26 03:22:34;;;;;;;14.50;6.53;;;;;;;;;;5011390;28;20049;-79
2023/08/26 03:25:00;;;;;;;10.38;6.80;;;;;;;;;;4995058;28;20133;-78
2023/08/26 03:27:26;;;;;;;11.20;6.95;;;;;;;;;;5011091;28;20175;-77
2023/08/26 03:29:52;;;;;;;10.25;6.07;;;;;;;;;;4978984;28;20049;-78
2023/08/26 03:32:21;;;;;;;11.18;6.22;;;;;;;;;;5012218;28;20065;-78
2023/08/26 03:34:47;;;;;;;10.57;5.97;;;;;;;;;;5012370;28;20053;-79
2023/08/26 03:37:13;;;;;;;10.43;6.13;;;;;;;;;;4994681;28;20050;-78
2023/08/26 03:39:39;;;;;;;9.70;6.38;;;;;;;;;;4995114;28;20054;-78
2023/08/26 03:42:06;;;;;;;10.00;5.82;;;;;;;;;;4995193;28;20383;-78
2023/08/26 03:44:32;;;;;;;10.50;5.68;;;;;;;;;;4994565;28;20045;-78
2023/08/26 03:46:58;;;;;;;13.93;6.07;;;;;;;;;;4994775;28;20038;-78
2023/08/26 03:49:24;;;;;;;9.13;5.95;;;;;;;;;;4994661;28;20129;-78
2023/08/26 03:51:51;;;;;;;8.57;5.68;;;;;;;;;;5012333;28;20560;-78
2023/08/26 03:54:17;;;;;;;9.02;5.72;;;;;;;;;;5012220;28;20065;-78
2023/08/26 03:56:43;;;;;;;10.82;6.13;;;;;;;;;;5012585;28;20045;-78
2023/08/26 03:59:10;;;;;;;11.25;6.00;;;;;;;;;;5012088;28;20092;-78
2023/08/26 04:01:36;;;;;;;13.15;6.15;;;;;;;;;;4994908;28;20491;-78
2023/08/26 04:04:02;;;;;;;9.88;5.55;;;;;;;;;;4994058;28;20069;-78
2023/08/26 04:06:28;;;;;;;9.23;6.55;;;;;;;;;;4992837;28;20446;-78
2023/08/26 04:08:57;;;;;;;10.68;6.30;;;;;;;;;;4994509;28;20045;-78
2023/08/26 04:11:23;;;;;;;13.57;6.60;;;;;;;;;;5012447;28;20080;-78
2023/08/26 04:13:49;;;;;;;10.05;6.50;;;;;;;;;;4994209;28;20100;-78
2023/08/26 04:16:16;;;;;;;9.90;6.43;;;;;;;;;;4994902;28;20450;-78
2023/08/26 04:18:43;;;;;;;10.18;6.50;;;;;;;;;;5012041;28;20050;-78
2023/08/26 04:21:09;;;;;;;10.40;6.57;;;;;;;;;;4995056;28;20049;-78
2023/08/26 04:23:35;;;;;;;9.50;6.35;;;;;;;;;;4998084;28;20075;-78
2023/08/26 04:26:04;;;;;;;8.88;5.90;;;;;;;;;;5015672;28;20042;-77
2023/08/26 04:28:31;;;;;;;10.20;5.88;;;;;;;;;;5034854;28;20045;-78
2023/08/26 04:30:58;;;;;;;9.07;5.75;;;;;;;;;;5035547;28;20620;-78
2023/08/26 04:33:25;;;;;;;8.10;5.25;;;;;;;;;;5034767;28;20497;-78
2023/08/26 04:35:51;;;;;;;11.02;5.53;;;;;;;;;;5017824;28;20153;-78
2023/08/26 04:38:17;;;;;;;10.00;5.70;;;;;;;;;;5017249;28;20053;-78
2023/08/26 04:40:43;;;;;;;7.93;5.50;;;;;;;;;;5035210;28;20046;-78
2023/08/26 04:43:10;;;;;;;7.63;5.20;;;;;;;;;;5016703;28;20132;-79
2023/08/26 04:45:40;;;;;;;11.20;5.32;;;;;;;;;;5001105;28;20049;-78
2023/08/26 04:48:07;;;;;;;7.40;5.15;;;;;;;;;;5016808;28;20045;-79
2023/08/26 04:50:33;;;;;;;7.88;5.18;;;;;;;;;;5017141;28;20398;-78
2023/08/26 04:52:59;;;;;;;11.80;5.53;;;;;;;;;;5016460;28;20557;-78
2023/08/26 04:55:25;;;;;;;8.45;4.97;;;;;;;;;;5016875;28;20060;-78
2023/08/26 04:57:51;;;;;;;8.82;5.30;;;;;;;;;;5034340;28;20448;-78
2023/08/26 05:00:18;;;;;;;8.43;5.10;;;;;;;;;;5034815;28;20110;-78
2023/08/26 05:02:44;;;;;;;8.68;5.05;;;;;;;;;;5034505;28;20045;-78
2023/08/26 05:05:10;;;;;;;7.53;5.10;;;;;;;;;;4998700;28;20062;-78
2023/08/26 05:07:36;;;;;;;8.95;5.40;;;;;;;;;;5014364;28;20406;-78
2023/08/26 05:10:03;;;;;;;10.93;5.05;;;;;;;;;;5014732;28;20129;-77
2023/08/26 05:12:29;;;;;;;8.73;5.40;;;;;;;;;;5014099;28;20114;-78
2023/08/26 05:14:56;;;;;;;8.80;4.70;;;;;;;;;;5014127;28;20045;-78
2023/08/26 05:17:22;;;;;;;9.27;5.15;;;;;;;;;;5012654;28;20046;-78
2023/08/26 05:19:48;;;;;;;7.25;5.07;;;;;;;;;;4995935;28;20049;-78
2023/08/26 05:22:14;;;;;;;10.50;4.85;;;;;;;;;;5014145;28;20100;-79
2023/08/26 05:24:41;;;;;;;8.02;5.00;;;;;;;;;;5014187;28;20056;-78
2023/08/26 05:27:07;;;;;;;8.57;4.78;;;;;;;;;;4996297;28;20081;-79
2023/08/26 05:29:33;;;;;;;9.18;5.35;;;;;;;;;;5014027;28;20041;-79
2023/08/26 05:31:59;;;;;;;8.80;5.20;;;;;;;;;;5014034;28;20446;-79
2023/08/26 05:34:25;;;;;;;9.75;5.75;;;;;;;;;;5013967;28;20494;-79
2023/08/26 05:36:52;;;;;;;8.23;5.88;;;;;;;;;;4996502;28;20041;-79
2023/08/26 05:39:18;;;;;;;7.93;5.32;;;;;;;;;;4996357;28;20089;-79
2023/08/26 05:41:44;;;;;;;9.95;5.43;;;;;;;;;;4996702;28;20038;-79
2023/08/26 05:44:10;;;;;;;11.85;5.95;;;;;;;;;;5011770;28;20459;-79
2023/08/26 05:46:36;;;;;;;7.97;5.20;;;;;;;;;;4980246;28;20050;-77
2023/08/26 05:49:02;;;;;;;7.47;5.47;;;;;;;;;;5013587;28;20586;-78
2023/08/26 05:51:28;;;;;;;7.30;5.20;;;;;;;;;;5014247;28;20135;-78
2023/08/26 05:53:54;;;;;;;9.25;5.70;;;;;;;;;;4995950;28;20034;-79
2023/08/26 05:56:20;;;;;;;7.88;4.70;;;;;;;;;;5014489;28;20053;-77
2023/08/26 05:58:46;;;;;;;7.25;5.05;;;;;;;;;;5000983;28;20402;-77
2023/08/26 06:01:12;;;;;;;10.25;5.28;;;;;;;;;;5018421;28;20073;-79
2023/08/26 06:03:38;;;;;;;11.80;5.50;;;;;;;;;;5022630;28;20060;-77
2023/08/26 06:06:05;;;;;;;9.57;5.35;;;;;;;;;;5036622;28;20049;-78
2023/08/26 06:08:31;;;;;;;6.68;5.30;;;;;;;;;;5015688;28;20348;-78
2023/08/26 06:10:57;;;;;;;9.77;4.90;;;;;;;;;;5033688;28;20045;-77
2023/08/26 06:13:23;;;;;;;8.02;5.03;;;;;;;;;;5015383;28;20397;-77
2023/08/26 06:15:58;;;;;;;9.20;5.25;;;;;;;;;;5015844;28;20075;-77
2023/08/26 06:18:25;;;;;;;7.15;5.18;;;;;;;;;;4999470;28;20438;-78
2023/08/26 06:20:51;;;;;;;7.10;4.80;;;;;;;;;;5033677;28;20041;-77
2023/08/26 06:23:18;;;;;;;8.40;5.05;;;;;;;;;;5032909;28;20077;-78
2023/08/26 06:25:51;;;;;;;9.00;5.30;;;;;;;;;;5014723;28;20045;-77
2023/08/26 06:28:17;;;;;;;7.90;4.85;;;;;;;;;;5010134;28;20060;-77
2023/08/26 06:30:43;;;;;;;6.38;5.18;;;;;;;;;;4978235;28;20049;-78
2023/08/26 06:33:09;;;;;;;6.68;4.75;;;;;;;;;;5011733;28;20454;-78
2023/08/26 06:35:35;;;;;;;7.78;4.63;;;;;;;;;;5012388;28;20049;-78
2023/08/26 06:38:02;;;;;;;6.07;4.65;;;;;;;;;;5011809;28;20042;-78
2023/08/26 06:40:31;;;;;;;7.22;4.65;;;;;;;;;;4995883;28;20053;-78
2023/08/26 06:42:57;;;;;;;8.35;4.70;;;;;;;;;;5011428;28;20112;-78
2023/08/26 06:45:23;;;;;;;7.45;4.50;;;;;;;;;;5012601;28;20038;-78
2023/08/26 06:47:49;;;;;;;6.88;4.78;;;;;;;;;;5013004;28;20096;-78
2023/08/26 06:50:15;;;;;;;8.55;4.65;;;;;;;;;;5011773;28;20056;-79
2023/08/26 06:52:41;;;;;;;7.95;4.20;;;;;;;;;;4994160;28;20042;-78
2023/08/26 06:55:09;;;;;;;8.77;4.47;;;;;;;;;;5012512;28;20510;-79
2023/08/26 06:57:35;;;;;;;9.45;3.90;;;;;;;;;;5011549;28;20116;-78
2023/08/26 07:00:05;;;;;;;6.53;4.03;;;;;;;;;;5012874;28;20046;-78
2023/08/26 07:02:31;;;;;;;7.10;4.20;;;;;;;;;;5011456;28;20064;-78
2023/08/26 07:04:57;;;;;;;5.55;4.00;;;;;;;;;;5011647;28;20199;-78
2023/08/26 07:07:23;;;;;;;6.13;4.10;;;;;;;;;;5012494;28;20053;-78
2023/08/26 07:09:49;;;;;;;5.03;3.70;;;;;;;;;;5013051;28;20061;-78
2023/08/26 07:12:15;;;;;;;6.43;4.00;;;;;;;;;;5012325;28;20164;-79
2023/08/26 07:14:41;;;;;;;5.45;3.70;;;;;;;;;;5010736;28;20074;-78
2023/08/26 07:17:07;;;;;;;5.65;3.72;;;;;;;;;;5010514;28;20072;-79
2023/08/26 07:19:33;;;;;;;6.38;4.30;;;;;;;;;;5012823;28;20045;-78
2023/08/26 07:21:59;;;;;;;7.32;4.13;;;;;;;;;;5012575;28;20045;-79
2023/08/26 07:24:25;;;;;;;6.85;3.70;;;;;;;;;;5012323;28;20133;-79
2023/08/26 07:26:51;;;;;;;5.55;4.07;;;;;;;;;;5010799;28;20563;-78
2023/08/26 07:29:17;;;;;;;5.75;4.15;;;;;;;;;;5009673;28;20402;-78
2023/08/26 07:31:44;;;;;;;4.93;3.75;;;;;;;;;;4992734;28;20438;-79
2023/08/26 07:34:10;;;;;;;7.35;4.60;;;;;;;;;;5028071;28;20417;-78
2023/08/26 07:36:36;;;;;;;7.10;4.80;;;;;;;;;;5031230;28;20095;-79
2023/08/26 07:39:03;;;;;;;9.05;6.22;;;;;;;;;;4997766;28;20042;-78
2023/08/26 07:41:29;;;;;;;7.97;6.15;;;;;;;;;;5014541;28;20037;-79
2023/08/26 07:43:55;;;;;;;8.48;7.32;;;;;;;;;;5031687;28;20088;-79
2023/08/26 07:46:22;;;;;;;14.25;9.95;;;;;;;;;;5032367;28;20041;-79
2023/08/26 07:48:49;;;;;;;17.60;12.13;;;;;;;;;;5014146;28;20085;-79
2023/08/26 07:51:15;;;;;;;17.38;12.82;;;;;;;;;;5032149;28;20072;-79
2023/08/26 07:53:41;;;;;;;16.08;13.82;;;;;;;;;;5031853;28;20414;-79
2023/08/26 07:56:08;;;;;;;18.50;13.50;;;;;;;;;;5032801;28;20041;-80
2023/08/26 07:58:34;;;;;;;15.93;13.43;;;;;;;;;;5017605;28;20077;-79
2023/08/26 08:01:00;;;;;;;19.20;13.93;;;;;;;;;;5017990;28;20127;-78
2023/08/26 08:03:27;;;;;;;19.30;14.77;;;;;;;;;;5034965;28;20163;-78
2023/08/26 08:05:53;;;;;;;18.70;14.55;;;;;;;;;;5018306;28;20184;-78
2023/08/26 08:08:19;;;;;;;19.52;14.75;;;;;;;;;;5017580;28;20064;-78
2023/08/26 08:10:45;;;;;;;18.65;15.38;;;;;;;;;;5018078;28;20041;-78
2023/08/26 08:13:11;;;;;;;17.55;15.75;;;;;;;;;;5035113;28;20041;-79
2023/08/26 08:15:37;;;;;;;20.00;16.15;;;;;;;;;;5035413;28;20079;-78
2023/08/26 08:18:03;;;;;;;17.25;15.45;;;;;;;;;;5035323;28;20458;-78
2023/08/26 08:20:32;;;;;;;21.15;16.27;;;;;;;;;;5035842;28;20163;-78
2023/08/26 08:22:59;;;;;;;18.98;15.48;;;;;;;;;;5035046;28;20046;-78
2023/08/26 08:25:25;;;;;;;20.15;16.13;;;;;;;;;;5035373;28;20393;-79
2023/08/26 08:27:51;;;;;;;20.83;15.88;;;;;;;;;;5020506;28;20363;-78
2023/08/26 08:30:17;;;;;;;18.05;15.07;;;;;;;;;;4981572;28;20050;-78
2023/08/26 08:32:43;;;;;;;18.58;15.18;;;;;;;;;;5015147;28;20042;-78
2023/08/26 08:35:09;;;;;;;18.85;14.23;;;;;;;;;;4997817;28;20108;-79
2023/08/26 08:37:35;;;;;;;17.05;14.30;;;;;;;;;;5015017;28;20049;-79
2023/08/26 08:40:01;;;;;;;15.35;13.15;;;;;;;;;;5015789;28;20408;-79
2023/08/26 08:42:28;;;;;;;16.60;13.18;;;;;;;;;;5015087;28;20403;-80
2023/08/26 08:44:55;;;;;;;14.57;12.77;;;;;;;;;;5015466;28;20048;-79
2023/08/26 08:47:21;;;;;;;14.50;12.35;;;;;;;;;;5015044;28;20068;-79
2023/08/26 08:49:48;;;;;;;15.40;12.02;;;;;;;;;;5015140;28;20046;-78
2023/08/26 08:52:15;;;;;;;13.55;11.68;;;;;;;;;;5014709;28;20046;-79
2023/08/26 08:54:41;;;;;;;14.02;11.43;;;;;;;;;;5014779;28;20050;-78
2023/08/26 08:57:10;;;;;;;15.20;10.80;;;;;;;;;;5014789;28;20042;-79
2023/08/26 08:59:37;;;;;;;12.95;10.10;;;;;;;;;;5013755;28;20133;-78
2023/08/26 09:02:05;;;;;;;12.35;9.95;;;;;;;;;;5014796;28;20044;-79
2023/08/26 09:04:32;;;;;;;15.88;9.65;;;;;;;;;;5014476;28;20058;-78
2023/08/26 09:06:59;;;;;;;16.25;9.80;;;;;;;;;;4996513;28;20054;-79
2023/08/26 09:09:25;;;;;;;12.13;9.50;;;;;;;;;;5014607;28;20126;-78
2023/08/26 09:11:51;;;;;;;11.27;8.93;;;;;;;;;;4997092;28;20104;-79
2023/08/26 09:14:17;;;;;;;13.93;8.95;;;;;;;;;;4994572;28;20119;-78
2023/08/26 09:16:44;;;;;;;10.27;8.63;;;;;;;;;;5012538;28;20060;-78
2023/08/26 09:19:13;;;;;;;12.32;8.98;;;;;;;;;;5012396;28;20402;-78
2023/08/26 09:21:46;;;;;;;10.88;8.13;;;;;;;;;;5014654;28;20054;-79
2023/08/26 09:24:16;;;;;;;15.50;7.80;;;;;;;;;;4995743;28;20061;-79
2023/08/26 09:26:43;;;;;;;11.35;7.97;;;;;;;;;;5013645;28;20034;-79
2023/08/26 09:29:14;;;;;;;13.32;8.25;;;;;;;;;;5017422;28;20052;-78
2023/08/26 09:31:50;;;;;;;12.52;8.40;;;;;;;;;;5020294;28;20053;-78
2023/08/26 09:34:23;;;;;;;13.05;7.55;;;;;;;;;;5014146;28;20046;-80
2023/08/26 09:36:49;;;;;;;11.00;7.65;;;;;;;;;;5018312;28;20131;-78
2023/08/26 09:39:16;;;;;;;9.45;6.47;;;;;;;;;;5034103;28;20049;-79
2023/08/26 09:41:43;;;;;;;10.65;6.50;;;;;;;;;;5016144;28;20052;-79
2023/08/26 09:44:10;;;;;;;11.75;7.40;;;;;;;;;;5033687;28;20482;-79
2023/08/26 09:46:36;;;;;;;10.63;6.90;;;;;;;;;;5034279;28;20053;-79
2023/08/26 09:49:03;;;;;;;10.15;7.10;;;;;;;;;;5015069;28;20046;-79
2023/08/26 09:51:30;;;;;;;11.02;6.65;;;;;;;;;;5015643;28;20079;-79
2023/08/26 09:53:56;;;;;;;12.77;6.53;;;;;;;;;;5015828;28;20034;-80
2023/08/26 09:56:24;;;;;;;8.80;6.53;;;;;;;;;;5016580;28;20059;-80
2023/08/26 09:58:50;;;;;;;8.68;5.93;;;;;;;;;;5033641;28;20049;-79
2023/08/26 10:01:20;;;;;;;8.75;5.78;;;;;;;;;;5033215;28;20049;-80
2023/08/26 10:03:48;;;;;;;10.15;5.65;;;;;;;;;;5030775;28;20061;-80
2023/08/26 10:06:17;;;;;;;10.35;5.88;;;;;;;;;;5033657;28;20080;-80
2023/08/26 10:08:45;;;;;;;10.88;5.85;;;;;;;;;;5033008;28;20045;-79
2023/08/26 10:11:12;;;;;;;9.85;5.72;;;;;;;;;;5033502;28;20052;-79
2023/08/26 10:13:39;;;;;;;7.90;5.32;;;;;;;;;;5015073;28;20048;-79
2023/08/26 10:16:06;;;;;;;9.23;5.00;;;;;;;;;;5033479;28;20089;-79
2023/08/26 10:18:54;;;;;;;9.40;5.63;;;;;;;;;;5032869;28;20048;-79
2023/08/26 10:21:21;;;;;;;7.30;4.07;;;;;;;;;;5033253;28;20081;-79
2023/08/26 10:23:49;;;;;;;6.32;2.80;;;;;;;;;;5015056;28;20058;-79
2023/08/26 10:26:15;;;;;;;4.82;2.45;;;;;;;;;;5014931;28;20096;-79
2023/08/26 10:28:42;;;;;;;5.00;2.40;;;;;;;;;;5012929;28;20053;-79
2023/08/26 10:31:09;;;;;;;5.70;2.10;;;;;;;;;;5013183;28;20045;-79
2023/08/26 10:34:01;;;;;;;6.03;1.85;;;;;;;;;;5032175;28;20442;-79
2023/08/26 10:36:28;;;;;;;6.38;2.10;;;;;;;;;;4994955;28;20350;-79
2023/08/26 10:38:56;;;;;;;6.30;2.33;;;;;;;;;;5032696;28;20061;-78
2023/08/26 10:41:22;;;;;;;4.55;2.00;;;;;;;;;;5033194;28;20347;-79
2023/08/26 10:44:06;;;;;;;5.65;2.10;;;;;;;;;;5032184;28;20057;-79
2023/08/26 10:46:33;;;;;;;5.18;2.17;;;;;;;;;;5032504;28;20132;-78
2023/08/26 10:49:00;;;;;;;6.55;2.03;;;;;;;;;;5014465;28;20129;-78
2023/08/26 10:51:26;;;;;;;7.72;2.05;;;;;;;;;;5032743;28;20045;-78
2023/08/26 10:53:52;;;;;;;3.97;1.63;;;;;;;;;;5014250;28;20434;-78
2023/08/26 10:56:19;;;;;;;4.45;2.00;;;;;;;;;;5014853;28;20525;-78
2023/08/26 10:58:49;;;;;;;3.92;1.75;;;;;;;;;;5032068;28;20045;-79
2023/08/26 11:01:16;;;;;;;3.95;1.77;;;;;;;;;;5032640;28;20437;-79
2023/08/26 11:03:44;;;;;;;5.50;1.90;;;;;;;;;;5014124;28;20133;-79
2023/08/26 11:06:13;;;;;;;4.40;1.80;;;;;;;;;;5032738;28;20398;-78
2023/08/26 11:08:39;;;;;;;4.05;1.70;;;;;;;;;;5014348;28;20437;-79
2023/08/26 11:11:05;;;;;;;2.42;1.50;;;;;;;;;;5031929;28;20121;-78
2023/08/26 11:13:32;;;;;;;2.10;1.40;;;;;;;;;;5031027;28;20133;-78
2023/08/26 11:15:58;;;;;;;3.35;1.80;;;;;;;;;;5014485;28;20534;-79
2023/08/26 11:18:25;;;;;;;2.97;1.60;;;;;;;;;;5011654;28;20045;-78
2023/08/26 11:20:51;;;;;;;3.80;1.60;;;;;;;;;;5032683;28;20095;-79
2023/08/26 11:23:17;;;;;;;5.65;1.77;;;;;;;;;;5031075;28;20518;-77
2023/08/26 11:25:43;;;;;;;4.28;1.70;;;;;;;;;;5030347;28;20502;-78
2023/08/26 11:28:10;;;;;;;4.20;2.08;;;;;;;;;;5030514;28;20041;-78
2023/08/26 11:30:45;;;;;;;5.85;2.10;;;;;;;;;;5033332;28;20412;-78
2023/08/26 11:33:15;;;;;;;4.65;2.10;;;;;;;;;;5021869;28;20046;-79
2023/08/26 11:35:42;;;;;;;5.05;2.25;;;;;;;;;;5016673;28;20038;-79
2023/08/26 11:38:08;;;;;;;3.80;2.05;;;;;;;;;;5016029;28;20487;-79
2023/08/26 11:40:37;;;;;;;4.18;2.40;;;;;;;;;;4999031;28;20080;-79
2023/08/26 11:43:10;;;;;;;4.75;2.35;;;;;;;;;;5014671;28;20052;-78
2023/08/26 11:45:37;;;;;;;6.38;2.40;;;;;;;;;;5016412;28;20053;-78
2023/08/26 11:48:04;;;;;;;4.75;2.60;;;;;;;;;;4998388;28;20125;-78
2023/08/26 11:50:30;;;;;;;5.57;3.05;;;;;;;;;;5014768;28;20077;-78
2023/08/26 11:52:56;;;;;;;7.15;2.95;;;;;;;;;;5015764;28;20042;-79
2023/08/26 11:55:22;;;;;;;4.85;2.95;;;;;;;;;;5016304;28;20128;-79
2023/08/26 11:57:51;;;;;;;5.53;3.45;;;;;;;;;;5015943;28;20046;-79
2023/08/26 12:00:18;;;;;;;8.35;3.72;;;;;;;;;;5015960;28;20050;-79
2023/08/26 12:02:47;;;;;;;6.35;3.70;;;;;;;;;;5016002;28;20046;-79
2023/08/26 12:05:17;;;;;;;10.52;3.90;;;;;;;;;;5011659;28;20054;-79
2023/08/26 12:07:50;;;;;;;8.70;3.78;;;;;;;;;;5015599;28;20129;-78
2023/08/26 12:10:20;;;;;;;6.70;4.05;;;;;;;;;;4997977;28;20049;-78
2023/08/26 12:12:47;;;;;;;7.30;4.68;;;;;;;;;;4998059;28;20347;-78
2023/08/26 12:15:14;;;;;;;7.03;4.43;;;;;;;;;;5015934;28;20046;-78
2023/08/26 12:17:54;;;;;;;8.82;4.88;;;;;;;;;;4997980;28;20133;-79
2023/08/26 12:20:20;;;;;;;8.07;4.15;;;;;;;;;;4997431;28;20438;-78
2023/08/26 12:22:50;;;;;;;6.88;4.10;;;;;;;;;;4997681;28;20360;-79
2023/08/26 12:25:24;;;;;;;6.18;3.42;;;;;;;;;;5015689;28;20057;-79
2023/08/26 12:27:50;;;;;;;4.50;2.90;;;;;;;;;;5029411;28;20099;-79
2023/08/26 12:30:16;;;;;;;5.35;2.42;;;;;;;;;;5035443;28;20054;-79
2023/08/26 12:32:42;;;;;;;4.63;2.13;;;;;;;;;;5035009;28;20041;-77
2023/08/26 12:35:08;;;;;;;5.22;2.20;;;;;;;;;;5017761;28;20458;-78
2023/08/26 12:37:37;;;;;;;3.83;2.17;;;;;;;;;;5001136;28;20041;-79
2023/08/26 12:40:07;;;;;;;5.63;2.33;;;;;;;;;;5017220;28;20045;-78
2023/08/26 12:42:33;;;;;;;3.97;2.30;;;;;;;;;;5034181;28;20048;-78
2023/08/26 12:45:02;;;;;;;3.78;2.00;;;;;;;;;;5035148;28;20446;-79
2023/08/26 12:47:29;;;;;;;3.47;1.65;;;;;;;;;;5034838;28;20046;-79
2023/08/26 12:49:57;;;;;;;2.80;1.33;;;;;;;;;;5035234;28;20051;-80
2023/08/26 12:52:23;;;;;;;2.75;1.58;;;;;;;;;;5017108;28;20045;-78
2023/08/26 12:54:49;;;;;;;4.10;1.48;;;;;;;;;;5017277;28;20041;-78
2023/08/26 12:57:15;;;;;;;3.00;1.48;;;;;;;;;;5034794;28;20402;-79
2023/08/26 12:59:41;;;;;;;4.70;1.60;;;;;;;;;;5017547;28;20107;-78
2023/08/26 13:02:11;;;;;;;4.00;1.30;;;;;;;;;;5020119;28;20052;-78
2023/08/26 13:04:37;;;;;;;1.95;1.15;;;;;;;;;;5040000;28;20073;-77
2023/08/26 13:07:04;;;;;;;2.97;1.40;;;;;;;;;;5035569;28;20041;-78
2023/08/26 13:09:30;;;;;;;2.30;1.50;;;;;;;;;;5034332;28;20132;-79
2023/08/26 13:11:57;;;;;;;4.10;1.58;;;;;;;;;;5034539;28;20037;-79
2023/08/26 13:14:23;;;;;;;4.43;1.70;;;;;;;;;;5016587;28;20047;-79
2023/08/26 13:16:49;;;;;;;4.82;1.48;;;;;;;;;;5016734;28;20128;-81
2023/08/26 13:19:15;;;;;;;3.42;1.60;;;;;;;;;;5000377;28;20045;-79
2023/08/26 13:21:42;;;;;;;2.70;1.40;;;;;;;;;;5034562;28;20045;-78
2023/08/26 13:24:08;;;;;;;4.57;1.70;;;;;;;;;;5015848;28;20045;-78
2023/08/26 13:26:34;;;;;;;3.10;1.55;;;;;;;;;;5030351;28;20042;-79
2023/08/26 13:29:00;;;;;;;1.77;1.40;;;;;;;;;;5014540;28;20130;-79
2023/08/26 13:31:27;;;;;;;4.78;1.45;;;;;;;;;;5015136;28;20054;-78
2023/08/26 13:33:53;;;;;;;2.20;1.40;;;;;;;;;;5033907;28;20045;-78
2023/08/26 13:36:19;;;;;;;3.03;1.40;;;;;;;;;;5016305;28;20052;-79
2023/08/26 13:38:45;;;;;;;2.50;1.50;;;;;;;;;;4999974;28;20045;-79
2023/08/26 13:41:11;;;;;;;2.55;1.48;;;;;;;;;;5034253;28;20046;-78
2023/08/26 13:43:37;;;;;;;4.57;1.60;;;;;;;;;;5032935;28;20077;-79
2023/08/26 13:46:03;;;;;;;3.00;1.60;;;;;;;;;;5033418;28;20104;-78
2023/08/26 13:48:29;;;;;;;2.25;1.40;;;;;;;;;;5016081;28;20453;-79
2023/08/26 13:50:55;;;;;;;2.70;1.50;;;;;;;;;;5033980;28;20041;-78
2023/08/26 13:53:21;;;;;;;2.53;1.30;;;;;;;;;;5033312;28;20042;-78
2023/08/26 13:55:54;;;;;;;3.03;1.50;;;;;;;;;;5033758;28;20231;-78
2023/08/26 13:58:21;;;;;;;2.55;1.40;;;;;;;;;;4999329;28;20441;-78
2023/08/26 14:00:47;;;;;;;2.65;1.50;;;;;;;;;;5015002;28;20041;-78
2023/08/26 14:03:13;;;;;;;3.10;1.67;;;;;;;;;;5032855;28;20371;-79
2023/08/26 14:05:44;;;;;;;3.78;1.80;;;;;;;;;;5033640;28;20091;-79
2023/08/26 14:08:11;;;;;;;3.45;2.00;;;;;;;;;;5033140;28;20045;-78
2023/08/26 14:10:37;;;;;;;3.72;2.08;;;;;;;;;;5015501;28;20100;-79
2023/08/26 14:13:03;;;;;;;3.78;2.20;;;;;;;;;;5015109;28;20049;-79
2023/08/26 14:15:29;;;;;;;4.82;2.20;;;;;;;;;;5015846;28;20784;-78
2023/08/26 14:17:55;;;;;;;5.18;2.35;;;;;;;;;;5015384;28;20045;-79
2023/08/26 14:20:21;;;;;;;4.63;2.40;;;;;;;;;;5033185;28;20053;-79
2023/08/26 14:22:47;;;;;;;4.32;2.53;;;;;;;;;;5033123;28;20041;-79
2023/08/26 14:25:13;;;;;;;5.55;2.47;;;;;;;;;;5015613;28;20041;-78
2023/08/26 14:27:39;;;;;;;3.83;2.50;;;;;;;;;;5002493;28;20538;-79
2023/08/26 14:30:05;;;;;;;4.50;2.50;;;;;;;;;;5013635;28;20049;-78
2023/08/26 14:32:32;;;;;;;4.00;2.35;;;;;;;;;;5011645;28;20074;-79
2023/08/26 14:34:58;;;;;;;4.43;2.35;;;;;;;;;;5013138;28;20042;-78